Time;durP1;ratioP1;P1;durP2;ratioP2;P2;SDS_P1;SDS_P2;PMS_P1;PMS_P2;Temp;Humidity;BMP_temperature;BMP_pressure;BME280_temperature;BME280_humidity;BME280_pressure;Samples;Min_cycle;Max_cycle;Signal;HPM_P1;HPM_P2
2021/12/07 00:01:29;;;;;;;16.35;10.18;;;;;;;4.02;90.89;96738.45;1713286;84;20993;-82
2021/12/07 00:03:56;;;;;;;18.37;9.85;;;;;;;3.95;90.92;96735.95;1713395;84;21028;-82
2021/12/07 00:06:23;;;;;;;16.73;9.90;;;;;;;3.92;90.80;96743.91;1713491;84;21020;-82
2021/12/07 00:08:54;;;;;;;14.63;9.20;;;;;;;3.90;90.86;96743.53;1713216;84;21029;-82
2021/12/07 00:11:19;;;;;;;14.75;9.45;;;;;;;3.88;90.96;96749.23;1713238;83;20981;-82
2021/12/07 00:13:45;;;;;;;16.42;9.60;;;;;;;3.86;91.02;96746.64;1755061;81;21012;-82
2021/12/07 00:16:13;;;;;;;17.12;10.05;;;;;;;3.85;91.06;96740.16;1779430;81;21446;-82
2021/12/07 00:18:41;;;;;;;17.45;9.70;;;;;;;3.82;91.21;96744.55;1779913;80;21343;-82
2021/12/07 00:21:08;;;;;;;14.28;10.00;;;;;;;3.80;91.20;96749.41;1779447;81;21013;-82
2021/12/07 00:23:35;;;;;;;19.12;10.10;;;;;;;3.77;91.13;96752.97;1779796;81;21048;-83
2021/12/07 00:26:03;;;;;;;15.25;9.03;;;;;;;3.75;91.13;96751.28;1779996;80;21008;-82
2021/12/07 00:28:30;;;;;;;18.37;9.65;;;;;;;3.73;91.38;96747.84;1751285;81;20961;-82
2021/12/07 00:31:07;;;;;;;16.17;9.68;;;;;;;3.72;91.56;96753.95;1749219;82;21445;-82
2021/12/07 00:35:53;;;;;;;17.77;9.88;;;;;;;3.70;91.20;96741.76;1749123;82;21076;-82
2021/12/07 00:38:24;;;;;;;17.77;10.30;;;;;;;3.69;91.39;96741.78;1751200;82;21454;-82
2021/12/07 00:40:54;;;;;;;15.38;8.88;;;;;;;3.69;91.35;96745.28;1760355;80;21090;-82
2021/12/07 00:43:20;;;;;;;16.12;9.18;;;;;;;3.68;91.54;96740.06;1734287;80;20976;-82
2021/12/07 00:45:49;;;;;;;19.40;10.20;;;;;;;3.68;91.41;96733.08;1721368;83;21164;-82
2021/12/07 00:48:17;;;;;;;16.82;9.88;;;;;;;3.69;91.45;96732.17;1721196;83;21369;-82
2021/12/07 00:50:48;;;;;;;16.00;9.93;;;;;;;3.68;91.67;96730.46;1721160;83;21084;-82
2021/12/07 00:53:16;;;;;;;15.48;9.63;;;;;;;3.70;91.75;96735.67;1721301;83;20980;-82
2021/12/07 00:55:51;;;;;;;17.52;10.53;;;;;;;3.70;91.62;96733.89;1741871;80;20937;-83
2021/12/07 00:58:24;;;;;;;17.73;9.80;;;;;;;3.70;91.68;96738.30;1788391;80;21033;-83
2021/12/07 01:01:05;;;;;;;16.80;10.32;;;;;;;3.68;91.62;96722.59;1788519;80;21032;-83
2021/12/07 01:03:34;;;;;;;20.17;10.90;;;;;;;3.67;92.16;96726.13;1781075;80;20993;-82
2021/12/07 01:06:17;;;;;;;17.40;9.45;;;;;;;3.64;91.82;96720.06;1721051;83;21653;-82
2021/12/07 01:08:56;;;;;;;17.40;9.65;;;;;;;3.64;91.78;96721.38;1719170;83;21032;-82
2021/12/07 01:24:51;;;;;;;20.30;10.10;;;;;;;3.63;91.90;96710.48;1710406;83;21544;-82
2021/12/07 01:27:22;;;;;;;17.98;10.70;;;;;;;3.61;92.10;96709.67;1788267;80;20965;-81
2021/12/07 01:30:06;;;;;;;19.60;11.00;;;;;;;3.61;91.95;96707.05;1788412;80;20991;-81
2021/12/07 01:32:45;;;;;;;;;;;;;;;3.62;92.34;96700.91;1788680;80;21032;-81
2021/12/07 01:40:35;;;;;;;15.70;9.10;;;;;;;3.72;92.02;96697.18;1779920;80;21292;-81
2021/12/07 01:49:40;;;;;;;15.38;9.15;;;;;;;3.88;92.08;96679.34;1780073;81;21079;-82
2021/12/07 01:50:59;;;;;;;17.17;9.08;;;;;;;3.91;92.04;96674.00;1776713;81;21477;-81
2021/12/07 02:01:28;;;;;;;13.28;8.00;;;;;;;4.01;91.88;96657.62;1713425;83;21001;-81
2021/12/07 02:03:58;;;;;;;14.53;8.88;;;;;;;4.02;91.78;96660.64;1713575;83;21051;-81
2021/12/07 02:06:25;;;;;;;13.40;8.40;;;;;;;4.02;91.74;96653.25;1721920;82;21451;-81
2021/12/07 02:08:51;;;;;;;15.68;9.20;;;;;;;4.02;91.74;96660.64;1779951;80;21037;-82
2021/12/07 02:11:18;;;;;;;14.40;8.95;;;;;;;4.04;91.85;96651.00;1780206;81;20970;-82
2021/12/07 02:16:15;;;;;;;15.32;8.95;;;;;;;3.98;91.79;96647.20;1774256;81;20997;-82
2021/12/07 02:18:42;;;;;;;16.55;8.85;;;;;;;3.96;91.48;96656.88;1748807;81;21422;-82
2021/12/07 02:21:23;;;;;;;15.48;9.20;;;;;;;3.94;91.41;96652.97;1749262;82;21000;-82
2021/12/07 02:23:56;;;;;;;15.72;9.13;;;;;;;3.93;91.43;96651.70;1748864;81;20997;-82
2021/12/07 02:26:23;;;;;;;15.32;9.20;;;;;;;3.90;91.26;96650.48;1732091;82;21423;-82
2021/12/07 02:28:52;;;;;;;13.30;8.48;;;;;;;3.83;90.83;96648.45;1749069;82;21017;-82
2021/12/07 02:31:21;;;;;;;14.18;9.03;;;;;;;3.81;91.09;96639.75;1749643;82;21509;-82
2021/12/07 02:33:49;;;;;;;13.70;8.58;;;;;;;3.80;91.05;96640.22;1749227;82;21044;-82
2021/12/07 02:36:17;;;;;;;15.28;8.85;;;;;;;3.76;90.96;96630.70;1746320;81;21000;-82
2021/12/07 02:38:44;;;;;;;14.53;8.85;;;;;;;3.72;91.00;96635.60;1714748;83;21505;-81
2021/12/07 02:41:11;;;;;;;13.88;8.35;;;;;;;3.67;90.89;96636.16;1721078;83;21020;-82
2021/12/07 02:43:38;;;;;;;14.83;9.13;;;;;;;3.61;91.55;96633.70;1729736;82;21028;-82
2021/12/07 02:46:05;;;;;;;14.83;8.90;;;;;;;3.59;91.10;96632.86;1757285;82;21060;-82
2021/12/07 02:48:32;;;;;;;16.52;9.53;;;;;;;3.56;91.17;96626.80;1757350;82;20980;-82
2021/12/07 02:51:00;;;;;;;16.05;9.38;;;;;;;3.54;91.13;96622.03;1757538;80;21024;-81
2021/12/07 02:53:32;;;;;;;16.45;9.40;;;;;;;3.51;90.94;96622.13;1735939;80;20972;-80
2021/12/07 02:56:01;;;;;;;18.80;10.05;;;;;;;3.51;91.13;96620.81;1721043;83;21012;-81
2021/12/07 02:58:30;;;;;;;17.35;9.90;;;;;;;3.51;91.27;96613.39;1692510;83;21000;-81
2021/12/07 03:01:09;;;;;;;16.85;9.53;;;;;;;3.50;91.35;96615.17;1721156;83;21423;-81
2021/12/07 03:03:36;;;;;;;16.65;10.13;;;;;;;3.49;91.11;96610.80;1719755;83;20992;-82
2021/12/07 03:06:13;;;;;;;16.48;9.85;;;;;;;3.46;91.22;96612.64;1743159;82;21039;-82
2021/12/07 03:09:03;;;;;;;17.52;9.63;;;;;;;3.43;91.44;96614.45;1754525;81;21016;-82
2021/12/07 03:27:37;;;;;;;19.05;11.03;;;;;;;3.43;91.72;96614.88;1746623;80;21004;-82
2021/12/07 03:30:06;;;;;;;19.82;10.98;;;;;;;3.37;92.01;96607.17;1720566;83;21071;-82
2021/12/07 03:32:35;;;;;;;17.98;10.78;;;;;;;3.34;92.15;96602.00;1735069;82;21036;-83
2021/12/07 03:35:02;;;;;;;19.00;10.78;;;;;;;3.30;92.22;96602.53;1757750;80;21466;-82
2021/12/07 03:37:29;;;;;;;19.25;9.98;;;;;;;3.29;92.01;96602.13;1757312;81;21012;-82
2021/12/07 03:39:55;;;;;;;20.62;9.88;;;;;;;3.28;92.65;96601.72;1757200;81;21028;-82
2021/12/07 03:42:22;;;;;;;16.95;9.78;;;;;;;3.28;92.11;96598.62;1757315;81;21458;-82
2021/12/07 03:44:49;;;;;;;16.75;9.78;;;;;;;3.28;92.00;96594.70;1757337;82;21071;-82
2021/12/07 03:47:16;;;;;;;21.73;10.63;;;;;;;3.29;92.16;96593.80;1756718;80;21031;-82
2021/12/07 03:49:43;;;;;;;20.50;10.80;;;;;;;3.34;91.71;96597.64;1720981;83;21000;-82
2021/12/07 03:52:10;;;;;;;18.10;9.60;;;;;;;3.39;91.95;96602.75;1721118;83;21094;-82
2021/12/07 03:54:37;;;;;;;20.60;10.40;;;;;;;3.38;91.75;96605.84;1757255;81;20972;-82
2021/12/07 03:57:05;;;;;;;18.40;10.08;;;;;;;3.40;91.59;96609.27;1757389;82;21008;-82
2021/12/07 03:59:32;;;;;;;17.52;9.30;;;;;;;3.41;92.42;96628.48;1757160;82;20976;-82
2021/12/07 04:01:59;;;;;;;15.45;9.03;;;;;;;3.42;92.13;96609.23;1743939;80;21405;-82
2021/12/07 04:04:30;;;;;;;17.27;9.83;;;;;;;3.45;92.19;96621.40;1720918;83;21016;-82
2021/12/07 04:06:57;;;;;;;18.95;9.60;;;;;;;3.48;91.94;96621.34;1720859;83;21067;-82
2021/12/07 04:09:25;;;;;;;19.02;9.60;;;;;;;3.52;92.30;96617.73;1721193;83;20979;-81
2021/12/07 04:11:54;;;;;;;16.37;8.95;;;;;;;3.55;92.24;96618.54;1721124;83;21004;-80
2021/12/07 04:14:21;;;;;;;14.87;8.30;;;;;;;3.56;92.03;96617.63;1721061;83;21022;-80
2021/12/07 04:16:47;;;;;;;16.32;9.10;;;;;;;3.58;92.03;96618.91;1693073;83;21398;-80
2021/12/07 04:19:14;;;;;;;14.58;8.48;;;;;;;3.62;91.88;96618.38;1721332;83;21035;-81
2021/12/07 04:21:41;;;;;;;19.45;9.50;;;;;;;3.61;91.69;96620.12;1721198;83;21426;-81
2021/12/07 04:24:09;;;;;;;16.45;9.10;;;;;;;3.64;91.99;96620.50;1693167;83;20937;-82
2021/12/07 04:26:37;;;;;;;16.35;9.08;;;;;;;3.63;91.83;96620.09;1721496;83;21410;-81
2021/12/07 04:29:04;;;;;;;15.60;9.13;;;;;;;3.62;92.10;96614.02;1721225;83;21531;-82
2021/12/07 04:31:31;;;;;;;15.65;8.63;;;;;;;3.62;91.84;96618.38;1747919;82;20974;-82
2021/12/07 04:33:57;;;;;;;14.93;8.70;;;;;;;3.55;91.91;96622.47;1788283;80;21416;-81
2021/12/07 04:36:24;;;;;;;15.08;8.03;;;;;;;3.53;92.33;96620.31;1788440;80;21019;-82
2021/12/07 04:38:52;;;;;;;17.15;8.55;;;;;;;3.54;92.11;96621.19;1757890;80;21042;-80
2021/12/07 04:41:18;;;;;;;17.87;9.10;;;;;;;3.49;91.73;96620.44;1749444;82;21021;-82
2021/12/07 04:43:48;;;;;;;16.23;8.80;;;;;;;3.42;92.33;96622.34;1753571;81;20998;-82
2021/12/07 04:46:29;;;;;;;14.43;8.10;;;;;;;3.37;92.00;96612.41;1780188;81;21044;-82
2021/12/07 04:49:32;;;;;;;;;;;;;;;3.30;91.96;96602.53;1781350;80;21080;-82
2021/12/07 04:59:43;;;;;;;12.18;7.22;;;;;;;3.10;91.99;96592.06;1749975;81;20981;-82
2021/12/07 05:02:10;;;;;;;11.88;6.67;;;;;;;3.04;92.42;96585.19;1749627;82;20973;-82
2021/12/07 05:04:37;;;;;;;10.48;6.15;;;;;;;3.02;91.72;96590.05;1749270;82;20981;-82
2021/12/07 05:07:13;;;;;;;11.73;6.42;;;;;;;2.98;92.10;96585.77;1749421;82;21024;-82
2021/12/07 05:09:53;;;;;;;14.60;7.50;;;;;;;2.93;93.41;96588.94;1747375;82;20993;-82
2021/12/07 05:14:31;;;;;;;11.00;6.78;;;;;;;2.86;93.39;96593.00;1780200;81;20997;-82
2021/12/07 05:17:26;;;;;;;12.10;7.17;;;;;;;2.84;92.72;96591.31;1779864;80;21417;-82
2021/12/07 05:38:37;;;;;;;29.85;21.25;;;;;;;2.92;93.08;96606.84;1749434;82;21017;-81
2021/12/07 05:41:07;;;;;;;31.17;22.20;;;;;;;2.94;93.26;96599.38;1749456;82;21055;-81
2021/12/07 05:43:34;;;;;;;32.67;22.35;;;;;;;2.97;92.56;96587.55;1749437;82;21387;-80
2021/12/07 05:46:03;;;;;;;24.92;17.30;;;;;;;3.02;92.63;96592.23;1750270;81;21454;-81
2021/12/07 05:48:29;;;;;;;29.70;20.48;;;;;;;3.08;92.59;96583.83;1780341;81;21029;-81
2021/12/07 05:50:56;;;;;;;29.35;21.68;;;;;;;3.15;92.76;96584.09;1780393;81;20941;-80
2021/12/07 05:53:24;;;;;;;26.30;18.42;;;;;;;3.22;92.73;96583.06;1780110;81;21004;-80
2021/12/07 05:55:51;;;;;;;22.22;16.65;;;;;;;3.30;93.06;96586.37;1780516;81;20985;-81
2021/12/07 05:58:19;;;;;;;19.73;12.82;;;;;;;3.38;92.86;96593.18;1780404;81;21004;-81
2021/12/07 06:00:47;;;;;;;40.55;15.90;;;;;;;3.42;92.75;96590.91;1767321;81;20981;-82
2021/12/07 06:03:15;;;;;;;24.75;13.58;;;;;;;3.39;92.72;96590.53;1749455;82;21047;-81
2021/12/07 06:05:44;;;;;;;27.67;12.85;;;;;;;3.38;92.85;96584.89;1749365;82;21037;-81
2021/12/07 06:08:11;;;;;;;29.18;14.45;;;;;;;3.40;93.09;96581.77;1749411;82;21434;-82
2021/12/07 06:10:37;;;;;;;23.15;12.15;;;;;;;3.45;92.96;96578.19;1749533;82;20981;-81
2021/12/07 06:13:05;;;;;;;14.58;8.30;;;;;;;3.47;92.84;96584.23;1749032;82;21053;-81
2021/12/07 06:15:35;;;;;;;17.42;9.10;;;;;;;3.47;92.50;96590.78;1752444;81;20957;-81
2021/12/07 06:18:03;;;;;;;13.48;8.40;;;;;;;3.41;92.29;96586.10;1739796;82;21041;-80
2021/12/07 06:20:30;;;;;;;28.27;8.98;;;;;;;3.40;92.23;96586.13;1739786;82;21052;-81
2021/12/07 06:22:57;;;;;;;12.43;7.70;;;;;;;3.38;91.99;96582.27;1739820;82;21005;-81
2021/12/07 06:25:24;;;;;;;12.95;7.40;;;;;;;3.34;91.89;96579.30;1744846;81;21509;-81
2021/12/07 06:27:52;;;;;;;13.83;7.80;;;;;;;3.32;91.96;96580.23;1775150;81;20997;-80
2021/12/07 06:30:19;;;;;;;12.13;7.40;;;;;;;3.27;92.05;96585.13;1748747;80;21407;-80
2021/12/07 06:32:45;;;;;;;12.58;7.60;;;;;;;3.25;92.12;96583.01;1739768;82;21037;-80
2021/12/07 06:35:13;;;;;;;14.58;8.05;;;;;;;3.22;91.90;96590.05;1740195;81;20993;-80
2021/12/07 06:37:39;;;;;;;14.80;7.75;;;;;;;3.17;91.79;96591.48;1754063;81;21044;-81
2021/12/07 06:40:10;;;;;;;16.87;7.92;;;;;;;3.12;92.37;96593.34;1749771;82;21001;-80
2021/12/07 06:42:39;;;;;;;12.37;7.33;;;;;;;3.09;92.00;96590.34;1748818;81;20986;-80
2021/12/07 06:45:10;;;;;;;12.90;7.75;;;;;;;3.12;91.83;96592.03;1703341;82;21006;-80
2021/12/07 06:47:39;;;;;;;12.10;7.33;;;;;;;3.08;91.78;96596.91;1687239;82;20992;-81
2021/12/07 06:50:10;;;;;;;11.05;6.85;;;;;;;3.03;92.35;96597.00;1686800;82;21051;-80
2021/12/07 06:52:36;;;;;;;11.65;7.22;;;;;;;3.03;92.00;96589.14;1706561;84;20998;-81
2021/12/07 06:55:06;;;;;;;12.07;6.80;;;;;;;3.04;92.03;96586.97;1749589;82;20989;-82
2021/12/07 06:57:32;;;;;;;12.30;7.20;;;;;;;3.03;92.53;96587.41;1749531;81;21391;-81
2021/12/07 06:59:59;;;;;;;12.05;6.83;;;;;;;3.02;92.06;96586.13;1749171;82;21584;-81
2021/12/07 07:02:27;;;;;;;13.28;8.08;;;;;;;3.01;92.52;96587.90;1742172;81;21021;-82
2021/12/07 07:04:55;;;;;;;12.07;7.40;;;;;;;2.99;92.53;96583.59;1746152;82;21044;-82
2021/12/07 07:07:23;;;;;;;12.00;7.22;;;;;;;2.98;92.12;96583.16;1743912;82;21008;-83
2021/12/07 07:09:51;;;;;;;12.37;7.47;;;;;;;2.96;92.21;96584.52;1762461;81;20980;-83
2021/12/07 07:12:19;;;;;;;11.18;6.83;;;;;;;2.96;92.16;96583.22;1780266;81;21005;-83
2021/12/07 07:14:47;;;;;;;10.65;6.60;;;;;;;2.97;92.00;96583.62;1780399;81;21462;-83
2021/12/07 07:17:14;;;;;;;13.65;7.30;;;;;;;2.95;91.65;96583.24;1752510;80;20977;-83
2021/12/07 07:19:41;;;;;;;11.03;6.62;;;;;;;2.97;91.69;96586.67;1749530;82;21390;-83
2021/12/07 07:22:07;;;;;;;8.20;5.58;;;;;;;2.96;91.90;96584.95;1769553;80;21024;-82
2021/12/07 07:24:34;;;;;;;10.60;6.00;;;;;;;2.99;91.93;96579.20;1780121;81;21000;-81
2021/12/07 07:27:01;;;;;;;10.20;6.28;;;;;;;3.02;92.31;96587.44;1774131;81;21024;-83
2021/12/07 07:29:28;;;;;;;8.80;5.65;;;;;;;3.01;92.02;96578.73;1775213;80;20977;-83
2021/12/07 07:31:55;;;;;;;8.85;5.65;;;;;;;2.97;91.99;96582.31;1775045;81;21083;-82
2021/12/07 07:34:22;;;;;;;9.05;5.42;;;;;;;2.98;92.04;96588.39;1775421;81;21041;-81
2021/12/07 07:36:49;;;;;;;8.28;5.28;;;;;;;2.99;92.40;96580.98;1742029;81;21009;-80
2021/12/07 07:39:15;;;;;;;6.80;4.40;;;;;;;3.02;92.05;96579.14;1739733;82;21016;-83
2021/12/07 07:41:42;;;;;;;7.05;5.15;;;;;;;3.00;91.35;96590.08;1739651;82;21029;-83
2021/12/07 07:44:09;;;;;;;10.03;6.70;;;;;;;3.04;91.68;96582.58;1757177;81;21430;-84
2021/12/07 07:46:43;;;;;;;6.75;4.37;;;;;;;3.05;91.86;96578.21;1750415;80;21013;-82
2021/12/07 07:49:10;;;;;;;6.45;4.25;;;;;;;3.07;91.82;96586.87;1745716;81;20973;-83
2021/12/07 07:51:39;;;;;;;6.58;4.62;;;;;;;3.09;91.92;96584.23;1756533;81;20974;-83
2021/12/07 07:54:08;;;;;;;8.05;4.42;;;;;;;3.14;92.03;96577.14;1757951;81;20953;-83
2021/12/07 07:56:36;;;;;;;7.30;4.58;;;;;;;3.15;91.74;96577.11;1756726;80;21013;-83
2021/12/07 07:59:04;;;;;;;9.23;4.70;;;;;;;3.11;91.30;96574.61;1716356;81;20977;-83
2021/12/07 08:01:31;;;;;;;6.90;4.45;;;;;;;3.10;91.15;96568.50;1735187;81;21001;-82
2021/12/07 08:04:02;;;;;;;6.97;4.62;;;;;;;3.09;91.00;96571.14;1746674;81;21008;-82
2021/12/07 08:06:29;;;;;;;6.72;4.55;;;;;;;3.09;91.37;96568.09;1738348;82;21380;-81
2021/12/07 08:08:58;;;;;;;7.58;4.95;;;;;;;3.12;91.20;96577.63;1742923;81;21379;-82
2021/12/07 08:11:25;;;;;;;7.45;4.92;;;;;;;3.11;91.06;96575.92;1726810;81;21012;-82
2021/12/07 08:13:52;;;;;;;7.28;4.90;;;;;;;3.03;90.62;96574.31;1746395;81;20992;-82
2021/12/07 08:16:19;;;;;;;6.67;4.67;;;;;;;3.00;90.56;96573.06;1739353;82;21044;-82
2021/12/07 08:18:53;;;;;;;5.67;3.75;;;;;;;2.99;90.81;96574.44;1739451;82;21403;-83
2021/12/07 08:21:23;;;;;;;7.40;4.70;;;;;;;2.98;90.68;96571.37;1738191;82;21061;-84
2021/12/07 08:23:50;;;;;;;6.47;4.30;;;;;;;2.97;90.74;96573.59;1738686;82;20985;-84
2021/12/07 08:26:21;;;;;;;4.95;3.77;;;;;;;2.96;90.96;96575.36;1746108;81;20942;-84
2021/12/07 08:28:53;;;;;;;7.17;4.15;;;;;;;2.93;91.11;96572.80;1736668;82;21080;-84
2021/12/07 08:31:23;;;;;;;6.37;3.72;;;;;;;2.94;90.75;96579.75;1740773;81;21047;-82
2021/12/07 08:33:50;;;;;;;7.42;3.77;;;;;;;2.93;90.68;96584.58;1739032;81;21410;-81
2021/12/07 08:36:17;;;;;;;5.75;4.10;;;;;;;2.92;90.84;96584.61;1737617;81;20953;-81
2021/12/07 08:38:45;;;;;;;5.20;4.05;;;;;;;2.91;90.74;96577.22;1739628;82;20978;-81
2021/12/07 08:41:15;;;;;;;6.03;4.00;;;;;;;2.94;90.73;96574.98;1740629;82;21052;-83
2021/12/07 08:43:43;;;;;;;7.37;4.60;;;;;;;2.94;90.97;96567.98;1744566;82;20993;-82
2021/12/07 08:46:14;;;;;;;5.22;3.85;;;;;;;2.92;90.74;96575.02;1745494;80;21457;-82
2021/12/07 08:48:42;;;;;;;12.35;7.58;;;;;;;2.90;90.79;96572.86;1785245;80;21001;-82
2021/12/07 08:51:11;;;;;;;12.18;7.55;;;;;;;2.93;90.60;96568.88;1785021;80;20997;-82
2021/12/07 08:53:46;;;;;;;6.12;4.55;;;;;;;2.90;90.56;96570.24;1785216;80;21004;-81
2021/12/07 09:01:38;;;;;;;8.25;5.53;;;;;;;2.83;91.30;96569.51;1753093;80;21094;-83
2021/12/07 09:04:06;;;;;;;7.53;5.20;;;;;;;2.85;91.28;96562.94;1749561;80;21854;-82
2021/12/07 09:06:34;;;;;;;8.15;5.65;;;;;;;2.87;91.35;96556.78;1721374;80;21003;-83
2021/12/07 09:09:00;;;;;;;8.80;5.40;;;;;;;2.90;91.44;96562.39;1720705;83;20992;-83
2021/12/07 09:14:18;;;;;;;7.92;5.03;;;;;;;3.01;91.44;96561.72;1707342;82;21014;-77
2021/12/07 09:16:51;;;;;;;7.95;5.15;;;;;;;3.04;91.29;96552.47;1750488;82;21100;-78
2021/12/07 09:19:20;;;;;;;6.72;4.75;;;;;;;3.10;91.10;96545.38;1756499;80;20957;-79
2021/12/07 09:21:46;;;;;;;8.50;5.10;;;;;;;3.14;91.19;96543.10;1777608;81;21431;-80
2021/12/07 09:24:15;;;;;;;8.85;5.47;;;;;;;3.15;90.66;96545.69;1767999;80;21001;-80
2021/12/07 09:26:42;;;;;;;7.87;5.08;;;;;;;3.19;91.31;96549.09;1773476;80;20978;-79
2021/12/07 09:29:09;;;;;;;8.43;5.05;;;;;;;3.19;90.71;96550.87;1760270;80;21418;-79
2021/12/07 09:31:37;;;;;;;8.45;5.03;;;;;;;3.17;90.72;96546.50;1761484;81;21065;-79
2021/12/07 09:34:11;;;;;;;7.42;5.08;;;;;;;3.14;90.63;96544.41;1760471;81;21020;-79
2021/12/07 09:36:36;;;;;;;9.75;5.70;;;;;;;3.08;90.60;96535.40;1756284;81;20979;-79
2021/12/07 09:39:09;;;;;;;7.87;5.47;;;;;;;3.06;90.76;96536.73;1761642;81;20979;-79
2021/12/07 09:41:35;;;;;;;7.78;5.30;;;;;;;3.04;90.76;96530.23;1749262;81;21060;-79
2021/12/07 09:44:07;;;;;;;9.13;5.90;;;;;;;3.05;90.56;96531.09;1743321;82;21048;-79
2021/12/07 09:46:35;;;;;;;21.60;13.28;;;;;;;3.02;90.51;96519.38;1740506;82;20958;-77
2021/12/07 09:49:05;;;;;;;19.25;11.48;;;;;;;3.01;90.72;96531.63;1746873;82;20997;-80
2021/12/07 09:51:33;;;;;;;11.03;6.30;;;;;;;3.01;90.82;96530.75;1739612;82;21387;-80
2021/12/07 09:54:00;;;;;;;7.72;5.33;;;;;;;2.97;90.46;96525.17;1749207;82;20992;-81
2021/12/07 09:56:29;;;;;;;8.53;5.60;;;;;;;2.88;90.36;96520.58;1746901;82;21482;-79
2021/12/07 09:58:59;;;;;;;8.10;5.45;;;;;;;2.84;90.54;96520.67;1746861;82;21009;-78
2021/12/07 10:01:29;;;;;;;8.90;5.55;;;;;;;2.80;91.03;96524.25;1748306;82;21000;-78
2021/12/07 10:03:56;;;;;;;8.28;5.33;;;;;;;2.74;90.62;96522.17;1747348;82;21485;-78
2021/12/07 10:06:25;;;;;;;7.08;5.25;;;;;;;2.70;91.29;96517.06;1733519;82;21052;-80
2021/12/07 10:08:52;;;;;;;7.47;4.60;;;;;;;2.73;90.87;96514.36;1718784;83;21451;-78
2021/12/07 10:11:19;;;;;;;7.15;4.67;;;;;;;2.74;91.65;96514.80;1731597;82;20961;-78
2021/12/07 10:13:50;;;;;;;8.05;4.78;;;;;;;2.71;90.86;96515.73;1754612;82;21059;-80
2021/12/07 10:16:20;;;;;;;7.22;4.90;;;;;;;2.66;91.27;96514.97;1754229;81;21024;-80
2021/12/07 10:18:47;;;;;;;8.38;5.37;;;;;;;2.63;90.49;96513.72;1754102;82;21005;-79
2021/12/07 10:21:25;;;;;;;8.00;4.75;;;;;;;2.57;90.55;96509.47;1754258;82;21549;-78
2021/12/07 10:24:06;;;;;;;8.88;5.22;;;;;;;2.53;91.03;96504.35;1754422;82;20977;-79
2021/12/07 10:26:35;;;;;;;8.40;5.10;;;;;;;2.50;90.98;96501.36;1753582;82;21085;-79
2021/12/07 10:29:14;;;;;;;7.53;4.60;;;;;;;2.49;91.52;96508.33;1754017;82;21005;-79
2021/12/07 10:31:46;;;;;;;7.42;4.60;;;;;;;2.48;91.42;96507.05;1754190;82;20989;-80
2021/12/07 10:34:21;;;;;;;6.25;3.98;;;;;;;2.42;91.73;96509.80;1754190;81;20996;-79
2021/12/07 10:36:56;;;;;;;6.55;4.10;;;;;;;2.42;91.53;96502.83;1752904;82;21374;-79
2021/12/07 10:39:37;;;;;;;6.55;3.67;;;;;;;2.36;91.30;96504.24;1751864;82;21450;-79
2021/12/07 10:42:08;;;;;;;6.87;4.17;;;;;;;2.30;91.50;96501.77;1751492;81;21447;-79
2021/12/07 10:44:39;;;;;;;4.10;3.30;;;;;;;2.22;91.72;96503.23;1741992;81;21060;-79
2021/12/07 10:47:12;;;;;;;5.28;3.83;;;;;;;2.06;92.14;96508.77;1738855;82;21514;-79
2021/12/07 10:49:49;;;;;;;5.83;4.17;;;;;;;2.06;92.07;96500.93;1766660;81;20977;-80
2021/12/07 10:52:33;;;;;;;5.78;3.90;;;;;;;2.09;92.19;96503.49;1779745;81;21004;-80
2021/12/07 10:55:19;;;;;;;6.57;4.23;;;;;;;2.12;92.66;96505.19;1779163;81;21028;-80
2021/12/07 10:58:00;;;;;;;5.25;3.70;;;;;;;2.15;92.49;96495.12;1751129;81;21012;-80
2021/12/07 11:00:50;;;;;;;6.08;4.50;;;;;;;2.10;92.69;96487.34;1713999;81;21032;-80
2021/12/07 11:03:21;;;;;;;7.17;4.17;;;;;;;2.06;93.52;96497.44;1750328;81;20950;-79
2021/12/07 11:05:53;;;;;;;7.10;4.33;;;;;;;2.04;92.85;96494.02;1746309;81;21411;-80
2021/12/07 11:08:23;;;;;;;6.87;4.58;;;;;;;2.01;92.89;96490.14;1718459;81;21426;-79
2021/12/07 11:10:51;;;;;;;6.90;4.58;;;;;;;2.02;92.50;96487.50;1759162;80;21020;-80
2021/12/07 11:13:35;;;;;;;7.62;4.80;;;;;;;2.03;92.56;96480.54;1747671;82;21023;-71
2021/12/07 11:16:02;;;;;;;7.03;4.67;;;;;;;1.94;92.73;96473.72;1746052;82;21064;-71
2021/12/07 11:18:40;;;;;;;6.53;4.33;;;;;;;1.93;93.48;96474.19;1747900;82;21064;-71
2021/12/07 11:21:11;;;;;;;6.67;4.10;;;;;;;1.87;93.53;96481.28;1713477;82;21062;-71
2021/12/07 11:23:45;;;;;;;6.20;4.10;;;;;;;1.85;92.82;96476.08;1678394;85;21013;-71
2021/12/07 11:31:51;;;;;;;5.33;3.83;;;;;;;1.71;92.98;96468.05;1707731;83;21470;-71
2021/12/07 11:34:31;;;;;;;5.45;3.90;;;;;;;1.75;92.68;96462.78;1682561;83;21026;-70
2021/12/07 11:37:12;;;;;;;6.40;4.30;;;;;;;1.66;93.66;96468.59;1677757;84;21450;-70
2021/12/07 11:39:55;;;;;;;4.67;3.50;;;;;;;1.66;93.37;96458.61;1701871;84;20982;-70
2021/12/07 11:42:36;;;;;;;5.35;3.77;;;;;;;1.65;93.83;96447.28;1699085;83;21451;-70
2021/12/07 11:45:17;;;;;;;5.97;4.10;;;;;;;1.70;93.53;96466.34;1667129;86;21012;-70
2021/12/07 11:48:02;;;;;;;4.97;3.92;;;;;;;1.71;93.71;96460.22;1701568;84;21051;-71
2021/12/07 11:50:45;;;;;;;6.92;4.00;;;;;;;1.68;94.36;96465.95;1713624;83;21414;-70
2021/12/07 11:53:17;;;;;;;5.58;3.92;;;;;;;1.73;94.13;96465.88;1723193;83;20987;-70
2021/12/07 11:55:49;;;;;;;6.35;4.25;;;;;;;1.71;94.04;96456.30;1702139;83;20986;-71
2021/12/07 11:58:19;;;;;;;6.10;3.35;;;;;;;1.75;94.61;96454.95;1702909;84;21104;-70
2021/12/07 12:00:52;;;;;;;5.37;3.65;;;;;;;1.77;94.26;96459.25;1701251;83;21029;-70
2021/12/07 12:03:22;;;;;;;6.03;4.30;;;;;;;1.77;93.92;96464.91;1701228;84;21024;-71
2021/12/07 12:05:53;;;;;;;5.80;3.40;;;;;;;1.75;94.33;96467.58;1701230;84;21035;-70
2021/12/07 12:08:21;;;;;;;4.15;3.25;;;;;;;1.76;94.27;96464.06;1700930;84;21067;-70
2021/12/07 12:10:57;;;;;;;5.25;3.40;;;;;;;1.67;93.89;96465.08;1700770;84;21025;-71
2021/12/07 12:14:07;;;;;;;5.67;4.03;;;;;;;1.65;93.54;96459.03;1731151;83;21008;-71
2021/12/07 12:16:57;;;;;;;5.80;3.72;;;;;;;1.67;94.10;96466.84;1699039;83;21047;-70
2021/12/07 12:19:57;;;;;;;4.60;3.47;;;;;;;1.64;93.74;96461.67;1731513;83;20992;-71
2021/12/07 12:22:47;;;;;;;4.92;3.45;;;;;;;1.62;93.67;96459.08;1731555;82;21151;-69
2021/12/07 12:25:18;;;;;;;6.70;4.25;;;;;;;1.64;93.91;96462.98;1731597;83;21020;-70
2021/12/07 12:27:49;;;;;;;7.62;4.10;;;;;;;1.62;94.82;96463.47;1731632;83;21086;-70
2021/12/07 12:30:27;;;;;;;4.40;3.30;;;;;;;1.62;93.51;96466.08;1731452;83;21034;-70
2021/12/07 12:33:04;;;;;;;5.53;3.30;;;;;;;1.61;93.78;96465.20;1713584;84;20954;-70
2021/12/07 12:35:41;;;;;;;4.95;3.27;;;;;;;1.60;93.60;96468.70;1709248;84;21013;-70
2021/12/07 12:38:28;;;;;;;5.58;3.83;;;;;;;1.58;93.54;96466.13;1691270;84;20990;-70
2021/12/07 12:41:11;;;;;;;5.65;3.77;;;;;;;1.62;93.56;96463.00;1691206;84;21045;-70
2021/12/07 12:43:54;;;;;;;5.35;3.60;;;;;;;1.66;93.21;96460.75;1723657;83;20989;-70
2021/12/07 12:46:27;;;;;;;5.03;3.83;;;;;;;1.57;94.26;96458.31;1726889;83;20998;-71
2021/12/07 12:49:00;;;;;;;6.20;3.92;;;;;;;1.59;93.85;96457.86;1725898;83;20967;-70
2021/12/07 12:51:31;;;;;;;4.17;3.25;;;;;;;1.58;93.35;96460.89;1726511;83;21083;-70
2021/12/07 12:53:59;;;;;;;5.90;4.17;;;;;;;1.59;93.52;96465.69;1715192;83;21051;-71
2021/12/07 12:56:36;;;;;;;7.58;4.90;;;;;;;1.63;94.18;96472.58;1709720;84;22292;-70
2021/12/07 12:59:07;;;;;;;4.53;3.33;;;;;;;1.65;94.02;96478.63;1690225;83;21435;-71
2021/12/07 13:01:42;;;;;;;5.10;3.55;;;;;;;1.63;94.28;96471.28;1727804;82;20961;-71
2021/12/07 13:04:21;;;;;;;;;;;;;;;1.55;93.97;96481.86;1728708;82;21431;-71
2021/12/07 13:07:00;;;;;;;6.87;4.10;;;;;;;1.56;93.91;96482.27;1727956;82;20099;-71
2021/12/07 13:09:26;;;;;;;4.47;3.57;;;;;;;1.56;93.92;96484.02;1726437;82;20998;-71
2021/12/07 13:12:03;;;;;;;5.42;3.85;;;;;;;1.54;94.10;96484.03;1720900;83;21257;-71
2021/12/07 13:14:38;;;;;;;4.33;3.62;;;;;;;1.55;93.96;96477.08;1725992;82;20996;-71
2021/12/07 13:17:29;;;;;;;6.95;4.22;;;;;;;1.60;94.30;96483.07;1726219;83;21047;-71
2021/12/07 13:20:27;;;;;;;4.62;3.98;;;;;;;1.65;94.35;96482.55;1697255;84;21003;-71
2021/12/07 13:23:03;;;;;;;5.78;4.00;;;;;;;1.67;94.32;96483.36;1709813;82;22143;-71
2021/12/07 13:25:47;;;;;;;5.28;4.20;;;;;;;1.65;94.63;96486.89;1733895;82;21036;-70
2021/12/07 13:28:28;;;;;;;8.50;4.80;;;;;;;1.68;94.72;96483.80;1756233;82;21474;-72
2021/12/07 13:31:10;;;;;;;6.20;4.83;;;;;;;1.67;93.92;96487.28;1756563;81;21005;-71